createdAt,value
2022-08-17T00:00:52.436Z,22.15
2022-08-17T00:11:06.470Z,21.98
2022-08-17T00:21:26.441Z,22.03
2022-08-17T00:31:59.489Z,21.82
2022-08-17T00:42:27.595Z,21.90
2022-08-17T00:53:04.485Z,21.85
2022-08-17T01:03:27.486Z,20.90
2022-08-17T01:13:42.497Z,20.80
2022-08-17T01:23:55.526Z,21.13
2022-08-17T01:34:11.529Z,21.51
2022-08-17T01:44:25.511Z,21.54
2022-08-17T01:54:40.521Z,21.52
2022-08-17T02:04:53.550Z,21.47
2022-08-17T02:15:06.565Z,21.40
2022-08-17T02:25:21.538Z,21.43
2022-08-17T02:35:34.615Z,21.21
2022-08-17T02:45:47.563Z,21.25
2022-08-17T02:56:00.592Z,21.11
2022-08-17T03:06:15.565Z,20.76
2022-08-17T03:16:28.609Z,20.96
2022-08-17T03:26:41.606Z,20.94
2022-08-17T03:36:54.636Z,20.59
2022-08-17T03:47:25.627Z,20.97
2022-08-17T03:57:38.613Z,19.90
2022-08-17T04:07:51.640Z,20.41
2022-08-17T04:18:11.656Z,20.44
2022-08-17T04:28:25.668Z,20.92
2022-08-17T04:38:40.701Z,21.03
2022-08-17T04:48:55.683Z,21.55
2022-08-17T04:59:29.693Z,21.59
2022-08-17T05:09:42.688Z,22.73
2022-08-17T05:20:01.700Z,22.97
2022-08-17T05:30:14.736Z,24.12
2022-08-17T05:40:32.948Z,25.38
2022-08-17T05:51:18.737Z,26.33
2022-08-17T06:01:38.770Z,27.16
2022-08-17T06:12:05.755Z,28.43
2022-08-17T06:22:28.769Z,28.53
2022-08-17T06:32:50.963Z,29.75
2022-08-17T06:43:46.164Z,30.36
2022-08-17T06:54:12.779Z,31.01
2022-08-17T07:04:31.804Z,31.32
2022-08-17T07:15:01.814Z,31.99
2022-08-17T07:25:25.810Z,32.40
2022-08-17T08:04:58.879Z,32.66
2022-08-17T08:32:06.741Z,33.60
2022-08-17T12:48:05.309Z,34.95
2022-08-17T12:58:16.441Z,35.34
2022-08-17T13:08:28.278Z,35.73
2022-08-17T13:18:43.661Z,35.87
2022-08-17T13:28:51.312Z,34.84
2022-08-17T13:39:09.718Z,33.95
2022-08-17T13:49:16.064Z,34.09
2022-08-17T13:59:54.546Z,34.07
2022-08-17T14:10:09.183Z,34.87
2022-08-17T14:20:16.462Z,34.17
2022-08-17T14:30:25.405Z,32.92
2022-08-17T14:40:31.758Z,32.48
2022-08-17T14:50:41.822Z,32.00
2022-08-17T15:00:50.929Z,31.98
2022-08-17T15:10:57.307Z,31.60
2022-08-17T15:21:07.966Z,31.72
2022-08-17T15:31:14.513Z,31.26
2022-08-17T15:41:20.899Z,30.94
2022-08-17T15:51:31.390Z,30.92
2022-08-17T16:02:29.911Z,30.50
2022-08-17T16:12:15.924Z,30.23
2022-08-17T16:22:51.942Z,29.85
2022-08-17T16:33:01.268Z,29.69
2022-08-17T16:43:11.643Z,29.54
2022-08-17T16:53:20.266Z,29.24
2022-08-17T17:03:27.522Z,29.12
2022-08-17T17:13:40.526Z,28.65
2022-08-17T17:23:56.849Z,28.30
2022-08-17T17:34:05.740Z,27.90
2022-08-17T17:44:18.021Z,27.53
2022-08-17T17:54:48.210Z,27.19
2022-08-17T18:05:02.406Z,26.80
2022-08-17T18:15:33.674Z,26.43
2022-08-17T18:25:55.058Z,26.25
2022-08-17T18:36:01.690Z,26.17
2022-08-17T18:46:28.341Z,26.16
2022-08-17T18:56:38.135Z,25.98
2022-08-17T19:06:44.722Z,25.92
2022-08-17T19:17:03.451Z,25.12
2022-08-17T19:27:26.910Z,25.14
2022-08-17T19:37:58.341Z,25.10
2022-08-17T19:48:08.396Z,25.02
2022-08-17T19:58:45.114Z,24.92
2022-08-17T20:09:15.194Z,24.73
2022-08-17T20:19:48.653Z,24.34
2022-08-17T20:30:11.586Z,24.51
2022-08-17T20:40:29.443Z,24.40
2022-08-17T20:50:44.639Z,24.21
2022-08-17T21:01:01.222Z,24.11
2022-08-17T21:12:00.015Z,23.96
2022-08-17T21:22:32.956Z,23.86
2022-08-17T21:32:42.153Z,23.68
2022-08-17T21:42:51.706Z,23.64
2022-08-17T21:52:58.694Z,23.48
2022-08-17T22:03:06.836Z,23.50
2022-08-17T22:13:19.767Z,23.48
2022-08-17T22:24:05.841Z,23.43
2022-08-17T22:34:15.400Z,23.37
2022-08-17T22:44:33.350Z,23.34
2022-08-17T22:54:58.369Z,23.31
2022-08-17T23:05:18.101Z,23.18
2022-08-17T23:15:27.497Z,23.17
2022-08-17T23:25:35.610Z,23.13
2022-08-17T23:35:41.940Z,23.07
2022-08-17T23:45:48.529Z,22.96
2022-08-17T23:56:04.575Z,22.99
